sensor_id;sensor_type;location;lat;lon;timestamp;pressure;altitude;pressure_sealevel;temperature;humidity
9189;BME280;34313;50.780;6.084;2022-10-31T00:00:20;100018.41;;;14.68;81.18
9189;BME280;34313;50.780;6.084;2022-10-31T00:02:45;100008.78;;;14.67;81.29
9189;BME280;34313;50.780;6.084;2022-10-31T00:05:11;100006.22;;;14.66;81.75
9189;BME280;34313;50.780;6.084;2022-10-31T00:07:36;100025.63;;;14.66;81.83
9189;BME280;34313;50.780;6.084;2022-10-31T00:10:02;100033.78;;;14.63;82.18
9189;BME280;34313;50.780;6.084;2022-10-31T00:12:27;100026.03;;;14.60;82.15
9189;BME280;34313;50.780;6.084;2022-10-31T00:14:53;100020.13;;;14.55;82.73
9189;BME280;34313;50.780;6.084;2022-10-31T00:17:18;100022.03;;;14.53;82.99
9189;BME280;34313;50.780;6.084;2022-10-31T00:19:43;100024.06;;;14.49;83.21
9189;BME280;34313;50.780;6.084;2022-10-31T00:22:09;100025.97;;;14.47;83.76
9189;BME280;34313;50.780;6.084;2022-10-31T00:24:34;100020.00;;;14.44;84.02
9189;BME280;34313;50.780;6.084;2022-10-31T00:27:00;100020.84;;;14.44;84.37
9189;BME280;34313;50.780;6.084;2022-10-31T00:29:25;100021.06;;;14.41;84.45
9189;BME280;34313;50.780;6.084;2022-10-31T00:31:52;100015.66;;;14.43;84.78
9189;BME280;34313;50.780;6.084;2022-10-31T00:34:17;100020.22;;;14.41;85.22
9189;BME280;34313;50.780;6.084;2022-10-31T00:36:42;100021.06;;;14.41;85.48
9189;BME280;34313;50.780;6.084;2022-10-31T00:39:08;100014.72;;;14.44;85.50
9189;BME280;34313;50.780;6.084;2022-10-31T00:41:33;100012.69;;;14.47;85.72
9189;BME280;34313;50.780;6.084;2022-10-31T00:43:59;100015.44;;;14.46;85.48
9189;BME280;34313;50.780;6.084;2022-10-31T00:46:24;100013.75;;;14.45;85.73
9189;BME280;34313;50.780;6.084;2022-10-31T00:48:49;99995.59;;;14.38;85.53
9189;BME280;34313;50.780;6.084;2022-10-31T00:51:15;100005.38;;;14.38;85.81
9189;BME280;34313;50.780;6.084;2022-10-31T00:53:40;100007.28;;;14.36;85.62
9189;BME280;34313;50.780;6.084;2022-10-31T00:56:06;99993.59;;;14.42;85.27
9189;BME280;34313;50.780;6.084;2022-10-31T00:58:31;99997.69;;;14.33;85.44
9189;BME280;34313;50.780;6.084;2022-10-31T01:00:56;99993.91;;;14.37;84.79
9189;BME280;34313;50.780;6.084;2022-10-31T01:03:24;99995.03;;;14.33;84.71
9189;BME280;34313;50.780;6.084;2022-10-31T01:06:09;99989.00;;;14.31;84.94
9189;BME280;34313;50.780;6.084;2022-10-31T01:08:35;99991.41;;;14.22;85.08
9189;BME280;34313;50.780;6.084;2022-10-31T01:11:14;99999.34;;;14.22;84.95
9189;BME280;34313;50.780;6.084;2022-10-31T01:13:41;99987.66;;;14.11;85.60
9189;BME280;34313;50.780;6.084;2022-10-31T01:16:08;99990.59;;;14.07;85.68
9189;BME280;34313;50.780;6.084;2022-10-31T01:18:35;99984.41;;;13.93;86.13
9189;BME280;34313;50.780;6.084;2022-10-31T01:21:04;99990.75;;;13.91;86.81
9189;BME280;34313;50.780;6.084;2022-10-31T01:23:31;99994.78;;;13.69;87.42
9189;BME280;34313;50.780;6.084;2022-10-31T01:26:02;99998.22;;;13.57;87.91
9189;BME280;34313;50.780;6.084;2022-10-31T01:28:28;99999.06;;;13.43;88.59
9189;BME280;34313;50.780;6.084;2022-10-31T01:30:53;99990.09;;;13.31;88.94
9189;BME280;34313;50.780;6.084;2022-10-31T01:33:18;99990.41;;;13.25;89.67
9189;BME280;34313;50.780;6.084;2022-10-31T01:35:44;99992.78;;;13.15;90.18
9189;BME280;34313;50.780;6.084;2022-10-31T01:38:09;100000.72;;;13.15;90.51
9189;BME280;34313;50.780;6.084;2022-10-31T01:40:34;99996.53;;;13.11;90.81
9189;BME280;34313;50.780;6.084;2022-10-31T01:43:00;99995.22;;;13.04;91.02
9189;BME280;34313;50.780;6.084;2022-10-31T01:45:25;99995.03;;;13.07;91.29
9189;BME280;34313;50.780;6.084;2022-10-31T01:47:50;99995.53;;;13.14;91.79
9189;BME280;34313;50.780;6.084;2022-10-31T01:50:28;100003.66;;;13.11;92.05
9189;BME280;34313;50.780;6.084;2022-10-31T01:52:57;100001.84;;;13.11;91.97
9189;BME280;34313;50.780;6.084;2022-10-31T01:55:30;99995.63;;;13.12;92.38
9189;BME280;34313;50.780;6.084;2022-10-31T01:58:00;99994.03;;;13.10;92.48
9189;BME280;34313;50.780;6.084;2022-10-31T02:00:27;99989.38;;;13.13;92.37
9189;BME280;34313;50.780;6.084;2022-10-31T02:02:53;100001.38;;;13.19;92.35
9189;BME280;34313;50.780;6.084;2022-10-31T02:05:28;99999.22;;;13.26;92.63
9189;BME280;34313;50.780;6.084;2022-10-31T02:08:04;99994.22;;;13.35;92.30
9189;BME280;34313;50.780;6.084;2022-10-31T02:10:34;99990.06;;;13.46;91.88
9189;BME280;34313;50.780;6.084;2022-10-31T02:13:04;99993.75;;;13.57;91.49
9189;BME280;34313;50.780;6.084;2022-10-31T02:15:31;99980.00;;;13.65;90.90
9189;BME280;34313;50.780;6.084;2022-10-31T02:17:57;99992.56;;;13.76;90.75
9189;BME280;34313;50.780;6.084;2022-10-31T02:20:25;99990.28;;;13.84;90.50
9189;BME280;34313;50.780;6.084;2022-10-31T02:33:56;99989.25;;;14.14;89.34
9189;BME280;34313;50.780;6.084;2022-10-31T02:36:33;99984.59;;;14.17;89.32
9189;BME280;34313;50.780;6.084;2022-10-31T02:45:22;99978.09;;;14.09;88.62
9189;BME280;34313;50.780;6.084;2022-10-31T02:47:53;99983.69;;;14.04;89.22
9189;BME280;34313;50.780;6.084;2022-10-31T02:50:32;99981.25;;;14.01;89.41
9189;BME280;34313;50.780;6.084;2022-10-31T02:52:58;99988.34;;;14.00;89.38
9189;BME280;34313;50.780;6.084;2022-10-31T02:57:58;99964.66;;;14.12;88.08
9189;BME280;34313;50.780;6.084;2022-10-31T03:00:26;99965.13;;;14.04;88.00
9189;BME280;34313;50.780;6.084;2022-10-31T03:05:59;99969.03;;;13.71;89.85
9189;BME280;34313;50.780;6.084;2022-10-31T03:10:59;99962.44;;;13.64;90.20
9189;BME280;34313;50.780;6.084;2022-10-31T03:13:41;99956.91;;;13.67;90.44
9189;BME280;34313;50.780;6.084;2022-10-31T03:18:34;99957.31;;;13.61;90.74
9189;BME280;34313;50.780;6.084;2022-10-31T03:21:25;99953.84;;;13.60;90.96
9189;BME280;34313;50.780;6.084;2022-10-31T03:23:52;99946.72;;;13.61;90.79
9189;BME280;34313;50.780;6.084;2022-10-31T03:26:21;99947.56;;;13.61;90.48
9189;BME280;34313;50.780;6.084;2022-10-31T03:29:03;99947.19;;;13.53;90.89
9189;BME280;34313;50.780;6.084;2022-10-31T03:31:36;99960.66;;;13.50;91.24
9189;BME280;34313;50.780;6.084;2022-10-31T03:34:04;99969.16;;;13.41;91.24
9189;BME280;34313;50.780;6.084;2022-10-31T03:36:33;99969.16;;;13.41;91.54
9189;BME280;34313;50.780;6.084;2022-10-31T03:39:02;99964.25;;;13.49;90.99
9189;BME280;34313;50.780;6.084;2022-10-31T03:41:32;99961.63;;;13.35;91.60
9189;BME280;34313;50.780;6.084;2022-10-31T03:44:08;99955.66;;;13.31;91.72
9189;BME280;34313;50.780;6.084;2022-10-31T03:46:35;99960.34;;;13.26;92.07
9189;BME280;34313;50.780;6.084;2022-10-31T03:49:01;99957.25;;;13.19;92.53
9189;BME280;34313;50.780;6.084;2022-10-31T03:51:39;99961.03;;;13.15;92.98
9189;BME280;34313;50.780;6.084;2022-10-31T03:54:13;99959.50;;;13.11;93.02
9189;BME280;34313;50.780;6.084;2022-10-31T03:56:49;99943.44;;;13.00;93.63
9189;BME280;34313;50.780;6.084;2022-10-31T04:01:58;99947.00;;;12.84;94.29
9189;BME280;34313;50.780;6.084;2022-10-31T04:04:25;99947.19;;;12.81;94.91
9189;BME280;34313;50.780;6.084;2022-10-31T04:06:52;99949.47;;;12.73;95.50
9189;BME280;34313;50.780;6.084;2022-10-31T04:09:19;99956.00;;;12.67;96.21
9189;BME280;34313;50.780;6.084;2022-10-31T04:11:50;99955.41;;;12.62;96.47
9189;BME280;34313;50.780;6.084;2022-10-31T04:14:17;99959.47;;;12.68;97.11
9189;BME280;34313;50.780;6.084;2022-10-31T04:16:43;99950.13;;;12.62;97.83
9189;BME280;34313;50.780;6.084;2022-10-31T04:19:10;99954.81;;;12.57;98.04
9189;BME280;34313;50.780;6.084;2022-10-31T04:21:36;99944.69;;;12.49;98.18
9189;BME280;34313;50.780;6.084;2022-10-31T04:24:01;99947.41;;;12.48;98.40
9189;BME280;34313;50.780;6.084;2022-10-31T04:26:27;99945.81;;;12.45;98.41
9189;BME280;34313;50.780;6.084;2022-10-31T04:28:52;99942.41;;;12.43;99.02
9189;BME280;34313;50.780;6.084;2022-10-31T04:31:18;99938.66;;;12.47;100.00
9189;BME280;34313;50.780;6.084;2022-10-31T04:33:43;99937.81;;;12.47;99.67
9189;BME280;34313;50.780;6.084;2022-10-31T04:36:09;99931.09;;;12.41;99.64
9189;BME280;34313;50.780;6.084;2022-10-31T04:38:34;99928.63;;;12.38;99.95
9189;BME280;34313;50.780;6.084;2022-10-31T04:41:00;99927.13;;;12.34;100.00
9189;BME280;34313;50.780;6.084;2022-10-31T04:43:25;99922.94;;;12.30;100.00
9189;BME280;34313;50.780;6.084;2022-10-31T04:45:50;99923.88;;;12.29;100.00
9189;BME280;34313;50.780;6.084;2022-10-31T04:48:16;99935.22;;;12.31;100.00
9189;BME280;34313;50.780;6.084;2022-10-31T04:50:42;99929.84;;;12.33;100.00
9189;BME280;34313;50.780;6.084;2022-10-31T04:53:07;99932.50;;;12.33;100.00
9189;BME280;34313;50.780;6.084;2022-10-31T04:55:33;99925.41;;;12.33;100.00
9189;BME280;34313;50.780;6.084;2022-10-31T04:57:59;99929.56;;;12.37;100.00
9189;BME280;34313;50.780;6.084;2022-10-31T05:00:25;99920.94;;;12.34;100.00
9189;BME280;34313;50.780;6.084;2022-10-31T05:02:53;99932.66;;;12.29;100.00
9189;BME280;34313;50.780;6.084;2022-10-31T05:05:21;99925.94;;;12.24;100.00
9189;BME280;34313;50.780;6.084;2022-10-31T05:07:48;99926.97;;;12.21;100.00
9189;BME280;34313;50.780;6.084;2022-10-31T05:10:17;99928.94;;;12.18;100.00
9189;BME280;34313;50.780;6.084;2022-10-31T05:12:52;99929.78;;;12.18;100.00
9189;BME280;34313;50.780;6.084;2022-10-31T05:15:19;99930.72;;;12.17;100.00
9189;BME280;34313;50.780;6.084;2022-10-31T05:17:44;99919.19;;;12.18;100.00
9189;BME280;34313;50.780;6.084;2022-10-31T05:20:11;99921.84;;;12.18;100.00
9189;BME280;34313;50.780;6.084;2022-10-31T05:22:41;99926.78;;;12.24;100.00
9189;BME280;34313;50.780;6.084;2022-10-31T05:25:06;99926.88;;;12.23;100.00
9189;BME280;34313;50.780;6.084;2022-10-31T05:27:32;99926.69;;;12.26;100.00
9189;BME280;34313;50.780;6.084;2022-10-31T05:29:57;99917.06;;;12.25;100.00
9189;BME280;34313;50.780;6.084;2022-10-31T05:32:22;99919.63;;;12.26;100.00
9189;BME280;34313;50.780;6.084;2022-10-31T05:34:48;99919.78;;;12.23;100.00
9189;BME280;34313;50.780;6.084;2022-10-31T05:37:13;99915.28;;;12.25;100.00
9189;BME280;34313;50.780;6.084;2022-10-31T05:39:38;99909.03;;;12.26;100.00
9189;BME280;34313;50.780;6.084;2022-10-31T05:42:03;99907.63;;;12.21;100.00
9189;BME280;34313;50.780;6.084;2022-10-31T05:44:29;99909.31;;;12.22;100.00
9189;BME280;34313;50.780;6.084;2022-10-31T05:46:54;99916.13;;;12.26;100.00
9189;BME280;34313;50.780;6.084;2022-10-31T05:49:19;99911.59;;;12.28;100.00
9189;BME280;34313;50.780;6.084;2022-10-31T05:51:45;99906.13;;;12.31;100.00
9189;BME280;34313;50.780;6.084;2022-10-31T05:54:10;99903.59;;;12.29;100.00
9189;BME280;34313;50.780;6.084;2022-10-31T05:56:36;99909.28;;;12.38;100.00
9189;BME280;34313;50.780;6.084;2022-10-31T05:59:01;99905.00;;;12.35;100.00
9189;BME280;34313;50.780;6.084;2022-10-31T06:01:26;99898.03;;;12.34;100.00
9189;BME280;34313;50.780;6.084;2022-10-31T06:03:52;99900.97;;;12.44;100.00
9189;BME280;34313;50.780;6.084;2022-10-31T06:06:17;99892.28;;;12.42;100.00
9189;BME280;34313;50.780;6.084;2022-10-31T06:08:43;99876.78;;;12.36;100.00
9189;BME280;34313;50.780;6.084;2022-10-31T06:11:08;99877.34;;;12.41;100.00
9189;BME280;34313;50.780;6.084;2022-10-31T06:13:34;99875.00;;;12.36;100.00
9189;BME280;34313;50.780;6.084;2022-10-31T06:15:59;99883.47;;;12.27;100.00
9189;BME280;34313;50.780;6.084;2022-10-31T06:18:24;99881.09;;;12.22;100.00
9189;BME280;34313;50.780;6.084;2022-10-31T06:20:50;99883.84;;;12.21;100.00
9189;BME280;34313;50.780;6.084;2022-10-31T06:23:15;99870.88;;;12.16;100.00
9189;BME280;34313;50.780;6.084;2022-10-31T06:25:40;99879.47;;;12.20;100.00
9189;BME280;34313;50.780;6.084;2022-10-31T06:28:06;99872.59;;;12.17;100.00
9189;BME280;34313;50.780;6.084;2022-10-31T06:30:31;99885.72;;;12.19;100.00
9189;BME280;34313;50.780;6.084;2022-10-31T06:33:05;99878.56;;;12.21;100.00
9189;BME280;34313;50.780;6.084;2022-10-31T06:35:31;99883.09;;;12.33;100.00
9189;BME280;34313;50.780;6.084;2022-10-31T06:37:57;99892.53;;;12.37;100.00
9189;BME280;34313;50.780;6.084;2022-10-31T06:40:23;99883.13;;;12.47;100.00
9189;BME280;34313;50.780;6.084;2022-10-31T06:42:59;99886.63;;;12.48;100.00
9189;BME280;34313;50.780;6.084;2022-10-31T06:45:25;99876.03;;;12.48;100.00
9189;BME280;34313;50.780;6.084;2022-10-31T06:47:54;99879.75;;;12.60;100.00
9189;BME280;34313;50.780;6.084;2022-10-31T06:50:21;99883.03;;;12.63;100.00
9189;BME280;34313;50.780;6.084;2022-10-31T06:52:54;99891.72;;;12.65;100.00
9189;BME280;34313;50.780;6.084;2022-10-31T06:55:20;99890.53;;;12.71;100.00
9189;BME280;34313;50.780;6.084;2022-10-31T06:57:50;99896.56;;;12.73;100.00
9189;BME280;34313;50.780;6.084;2022-10-31T07:00:16;99900.63;;;12.79;100.00
9189;BME280;34313;50.780;6.084;2022-10-31T07:02:41;99899.41;;;12.84;100.00
9189;BME280;34313;50.780;6.084;2022-10-31T07:05:07;99896.75;;;12.84;100.00
9189;BME280;34313;50.780;6.084;2022-10-31T07:07:32;99893.25;;;12.98;100.00
9189;BME280;34313;50.780;6.084;2022-10-31T07:09:57;99886.94;;;13.01;100.00
9189;BME280;34313;50.780;6.084;2022-10-31T07:12:23;99887.50;;;13.20;100.00
9189;BME280;34313;50.780;6.084;2022-10-31T07:14:48;99875.84;;;13.23;100.00
9189;BME280;34313;50.780;6.084;2022-10-31T07:17:13;99882.44;;;13.30;99.78
9189;BME280;34313;50.780;6.084;2022-10-31T07:19:39;99873.09;;;13.39;98.60
9189;BME280;34313;50.780;6.084;2022-10-31T07:22:04;99879.31;;;13.52;97.68
9189;BME280;34313;50.780;6.084;2022-10-31T07:24:29;99883.25;;;13.59;97.35
9189;BME280;34313;50.780;6.084;2022-10-31T07:26:55;99887.13;;;13.68;97.35
9189;BME280;34313;50.780;6.084;2022-10-31T07:29:20;99897.75;;;13.81;97.18
9189;BME280;34313;50.780;6.084;2022-10-31T07:31:46;99888.25;;;13.91;96.32
9189;BME280;34313;50.780;6.084;2022-10-31T07:34:11;99887.09;;;13.95;94.79
9189;BME280;34313;50.780;6.084;2022-10-31T07:36:37;99894.44;;;14.05;94.45
9189;BME280;34313;50.780;6.084;2022-10-31T07:39:02;99894.56;;;14.16;93.81
9189;BME280;34313;50.780;6.084;2022-10-31T07:41:27;99894.81;;;14.26;93.40
9189;BME280;34313;50.780;6.084;2022-10-31T07:43:53;99900.97;;;14.39;93.09
9189;BME280;34313;50.780;6.084;2022-10-31T07:46:18;99884.56;;;14.47;91.97
9189;BME280;34313;50.780;6.084;2022-10-31T07:48:44;99894.16;;;14.62;90.86
9189;BME280;34313;50.780;6.084;2022-10-31T07:51:09;99892.88;;;14.68;90.52
9189;BME280;34313;50.780;6.084;2022-10-31T07:53:34;99894.56;;;14.69;89.97
9189;BME280;34313;50.780;6.084;2022-10-31T07:56:00;99900.63;;;14.71;89.81
9189;BME280;34313;50.780;6.084;2022-10-31T07:58:25;99898.06;;;14.82;89.29
9189;BME280;34313;50.780;6.084;2022-10-31T08:00:50;99900.41;;;14.87;89.39
9189;BME280;34313;50.780;6.084;2022-10-31T08:03:18;99895.09;;;14.87;89.24
9189;BME280;34313;50.780;6.084;2022-10-31T08:05:44;99890.63;;;14.87;89.08
9189;BME280;34313;50.780;6.084;2022-10-31T08:08:11;99897.00;;;14.98;88.40
9189;BME280;34313;50.780;6.084;2022-10-31T08:10:37;99894.13;;;15.01;88.63
9189;BME280;34313;50.780;6.084;2022-10-31T08:13:04;99893.91;;;15.04;88.57
9189;BME280;34313;50.780;6.084;2022-10-31T08:15:30;99897.38;;;15.17;87.88
9189;BME280;34313;50.780;6.084;2022-10-31T08:17:56;99895.69;;;15.29;87.54
9189;BME280;34313;50.780;6.084;2022-10-31T08:20:22;99890.94;;;15.45;87.56
9189;BME280;34313;50.780;6.084;2022-10-31T08:22:58;99891.97;;;15.56;85.87
9189;BME280;34313;50.780;6.084;2022-10-31T08:25:25;99882.50;;;15.64;84.44
9189;BME280;34313;50.780;6.084;2022-10-31T08:27:52;99875.56;;;15.62;84.94
9189;BME280;34313;50.780;6.084;2022-10-31T08:30:20;99854.31;;;15.75;84.37
9189;BME280;34313;50.780;6.084;2022-10-31T08:32:47;99863.94;;;16.00;83.62
9189;BME280;34313;50.780;6.084;2022-10-31T08:35:13;99867.38;;;16.13;82.37
9189;BME280;34313;50.780;6.084;2022-10-31T08:37:40;99859.00;;;16.42;81.38
9189;BME280;34313;50.780;6.084;2022-10-31T08:40:06;99857.47;;;16.62;80.19
9189;BME280;34313;50.780;6.084;2022-10-31T08:42:32;99863.88;;;16.93;78.77
9189;BME280;34313;50.780;6.084;2022-10-31T08:44:57;99856.41;;;17.10;77.59
9189;BME280;34313;50.780;6.084;2022-10-31T08:47:22;99850.41;;;17.40;76.42
9189;BME280;34313;50.780;6.084;2022-10-31T08:49:48;99848.44;;;17.53;75.37
9189;BME280;34313;50.780;6.084;2022-10-31T08:52:13;99841.16;;;17.55;74.74
9189;BME280;34313;50.780;6.084;2022-10-31T08:54:40;99840.53;;;17.63;74.84
9189;BME280;34313;50.780;6.084;2022-10-31T08:57:05;99828.94;;;17.85;73.34
9189;BME280;34313;50.780;6.084;2022-10-31T08:59:30;99826.44;;;18.05;72.96
9189;BME280;34313;50.780;6.084;2022-10-31T09:01:56;99825.47;;;18.06;71.95
9189;BME280;34313;50.780;6.084;2022-10-31T09:04:21;99818.81;;;18.00;72.01
9189;BME280;34313;50.780;6.084;2022-10-31T09:06:46;99814.66;;;17.86;72.33
9189;BME280;34313;50.780;6.084;2022-10-31T09:09:12;99815.72;;;17.84;72.75
9189;BME280;34313;50.780;6.084;2022-10-31T09:11:37;99807.91;;;18.03;72.56
9189;BME280;34313;50.780;6.084;2022-10-31T09:14:02;99813.25;;;18.03;72.39
9189;BME280;34313;50.780;6.084;2022-10-31T09:16:28;99801.41;;;18.17;71.95
9189;BME280;34313;50.780;6.084;2022-10-31T09:18:53;99803.72;;;18.10;71.27
9189;BME280;34313;50.780;6.084;2022-10-31T09:21:18;99800.91;;;18.02;71.82
9189;BME280;34313;50.780;6.084;2022-10-31T09:23:44;99792.22;;;18.10;71.77
9189;BME280;34313;50.780;6.084;2022-10-31T09:26:09;99792.94;;;18.12;71.26
9189;BME280;34313;50.780;6.084;2022-10-31T09:28:34;99793.53;;;18.16;71.11
9189;BME280;34313;50.780;6.084;2022-10-31T09:31:00;99791.06;;;18.24;70.75
9189;BME280;34313;50.780;6.084;2022-10-31T09:33:25;99786.06;;;18.40;70.42
9189;BME280;34313;50.780;6.084;2022-10-31T09:35:51;99768.41;;;18.49;69.93
9189;BME280;34313;50.780;6.084;2022-10-31T09:38:20;99774.25;;;18.64;69.69
9189;BME280;34313;50.780;6.084;2022-10-31T09:45:50;99759.22;;;18.94;67.67
9189;BME280;34313;50.780;6.084;2022-10-31T09:50:53;99739.28;;;19.37;66.87
9189;BME280;34313;50.780;6.084;2022-10-31T09:53:51;99731.69;;;19.42;66.23
9189;BME280;34313;50.780;6.084;2022-10-31T09:56:20;99720.16;;;19.41;66.57
9189;BME280;34313;50.780;6.084;2022-10-31T09:58:50;99724.09;;;19.27;66.38
9189;BME280;34313;50.780;6.084;2022-10-31T10:01:48;99699.34;;;19.25;66.66
9189;BME280;34313;50.780;6.084;2022-10-31T10:04:44;99722.25;;;19.48;66.05
9189;BME280;34313;50.780;6.084;2022-10-31T10:08:23;99744.91;;;19.73;65.19
9189;BME280;34313;50.780;6.084;2022-10-31T10:10:47;99758.94;;;20.14;64.24
9189;BME280;34313;50.780;6.084;2022-10-31T10:13:30;99752.34;;;20.46;62.61
9189;BME280;34313;50.780;6.084;2022-10-31T10:18:40;99752.63;;;20.90;61.17
9189;BME280;34313;50.780;6.084;2022-10-31T10:21:23;99757.47;;;21.04;60.18
9189;BME280;34313;50.780;6.084;2022-10-31T10:24:00;99753.94;;;21.04;59.36
9189;BME280;34313;50.780;6.084;2022-10-31T10:26:41;99746.66;;;21.14;57.59
9189;BME280;34313;50.780;6.084;2022-10-31T10:29:29;99746.25;;;21.09;58.66
9189;BME280;34313;50.780;6.084;2022-10-31T10:31:58;99749.34;;;21.14;58.72
9189;BME280;34313;50.780;6.084;2022-10-31T10:34:29;99750.81;;;21.26;58.57
9189;BME280;34313;50.780;6.084;2022-10-31T10:37:02;99759.91;;;21.33;57.67
9189;BME280;34313;50.780;6.084;2022-10-31T10:39:44;99753.72;;;21.33;56.56
9189;BME280;34313;50.780;6.084;2022-10-31T10:42:15;99746.16;;;21.28;56.65
9189;BME280;34313;50.780;6.084;2022-10-31T10:45:06;99740.63;;;21.12;56.67
9189;BME280;34313;50.780;6.084;2022-10-31T10:48:29;99744.75;;;21.24;56.22
9189;BME280;34313;50.780;6.084;2022-10-31T10:50:51;99735.34;;;21.38;55.81
9189;BME280;34313;50.780;6.084;2022-10-31T10:56:22;99720.44;;;21.53;56.35
9189;BME280;34313;50.780;6.084;2022-10-31T10:58:52;99714.28;;;21.61;56.52
9189;BME280;34313;50.780;6.084;2022-10-31T11:01:19;99707.94;;;21.44;56.50
9189;BME280;34313;50.780;6.084;2022-10-31T11:03:44;99699.94;;;21.34;57.28
9189;BME280;34313;50.780;6.084;2022-10-31T11:06:21;99691.69;;;21.28;57.51
9189;BME280;34313;50.780;6.084;2022-10-31T11:08:51;99693.59;;;21.18;58.11
9189;BME280;34313;50.780;6.084;2022-10-31T11:13:44;99683.03;;;21.34;57.98
9189;BME280;34313;50.780;6.084;2022-10-31T11:16:15;99675.22;;;21.41;57.66
9189;BME280;34313;50.780;6.084;2022-10-31T11:18:52;99670.41;;;21.08;58.42
9189;BME280;34313;50.780;6.084;2022-10-31T11:21:30;99660.31;;;21.02;58.56
9189;BME280;34313;50.780;6.084;2022-10-31T11:26:40;99654.03;;;20.93;58.76
9189;BME280;34313;50.780;6.084;2022-10-31T11:29:13;99652.38;;;20.65;59.17
9189;BME280;34313;50.780;6.084;2022-10-31T11:31:40;99637.47;;;20.80;59.01
9189;BME280;34313;50.780;6.084;2022-10-31T11:34:19;99636.50;;;20.81;58.99
9189;BME280;34313;50.780;6.084;2022-10-31T11:36:48;99635.28;;;20.93;58.63
9189;BME280;34313;50.780;6.084;2022-10-31T11:39:18;99627.53;;;21.08;58.30
9189;BME280;34313;50.780;6.084;2022-10-31T11:41:45;99627.38;;;21.10;58.14
9189;BME280;34313;50.780;6.084;2022-10-31T11:44:20;99622.16;;;21.08;58.05
9189;BME280;34313;50.780;6.084;2022-10-31T11:46:54;99612.75;;;21.04;58.20
9189;BME280;34313;50.780;6.084;2022-10-31T11:49:37;99614.59;;;21.04;58.42
9189;BME280;34313;50.780;6.084;2022-10-31T11:52:06;99608.63;;;21.10;58.28
9189;BME280;34313;50.780;6.084;2022-10-31T11:54:42;99599.53;;;21.47;57.57
9189;BME280;34313;50.780;6.084;2022-10-31T11:57:33;99589.19;;;21.52;57.09
9189;BME280;34313;50.780;6.084;2022-10-31T12:02:45;99580.22;;;21.69;56.33
9189;BME280;34313;50.780;6.084;2022-10-31T12:05:20;99578.75;;;21.75;55.99
9189;BME280;34313;50.780;6.084;2022-10-31T12:07:48;99559.34;;;21.81;55.62
9189;BME280;34313;50.780;6.084;2022-10-31T12:10:14;99550.09;;;21.76;55.74
9189;BME280;34313;50.780;6.084;2022-10-31T12:12:59;99544.03;;;21.74;55.48
9189;BME280;34313;50.780;6.084;2022-10-31T12:15:32;99539.78;;;21.55;55.17
9189;BME280;34313;50.780;6.084;2022-10-31T12:46:19;99514.16;;;21.60;49.96
9189;BME280;34313;50.780;6.084;2022-10-31T12:59:10;99490.34;;;22.08;48.07
9189;BME280;34313;50.780;6.084;2022-10-31T13:01:44;99469.91;;;22.23;46.81
9189;BME280;34313;50.780;6.084;2022-10-31T13:04:24;99475.63;;;22.37;46.69
9189;BME280;34313;50.780;6.084;2022-10-31T13:06:55;99458.47;;;22.13;47.24
9189;BME280;34313;50.780;6.084;2022-10-31T13:09:40;99456.97;;;22.19;47.44
9189;BME280;34313;50.780;6.084;2022-10-31T13:12:10;99449.41;;;22.06;47.82
9189;BME280;34313;50.780;6.084;2022-10-31T13:14:43;99432.47;;;22.22;47.42
9189;BME280;34313;50.780;6.084;2022-10-31T13:17:36;99431.84;;;22.28;47.47
9189;BME280;34313;50.780;6.084;2022-10-31T13:20:18;99416.69;;;22.10;47.07
9189;BME280;34313;50.780;6.084;2022-10-31T13:22:48;99415.69;;;21.95;48.83
9189;BME280;34313;50.780;6.084;2022-10-31T13:25:18;99408.09;;;21.74;50.81
9189;BME280;34313;50.780;6.084;2022-10-31T13:27:48;99405.03;;;21.61;51.25
9189;BME280;34313;50.780;6.084;2022-10-31T13:30:18;99399.59;;;21.44;51.84
9189;BME280;34313;50.780;6.084;2022-10-31T13:35:40;99387.31;;;21.42;52.09
9189;BME280;34313;50.780;6.084;2022-10-31T13:43:24;99370.16;;;20.84;53.75
9189;BME280;34313;50.780;6.084;2022-10-31T13:48:33;99372.16;;;20.82;53.46
9189;BME280;34313;50.780;6.084;2022-10-31T13:51:05;99370.66;;;20.87;53.38
9189;BME280;34313;50.780;6.084;2022-10-31T13:53:44;99369.47;;;20.82;56.58
9189;BME280;34313;50.780;6.084;2022-10-31T13:56:17;99366.38;;;20.50;59.51
9189;BME280;34313;50.780;6.084;2022-10-31T14:01:20;99380.06;;;20.03;62.55
9189;BME280;34313;50.780;6.084;2022-10-31T14:09:34;99369.28;;;19.95;63.53
9189;BME280;34313;50.780;6.084;2022-10-31T14:12:05;99358.75;;;19.93;63.37
9189;BME280;34313;50.780;6.084;2022-10-31T14:14:52;99352.41;;;19.76;64.09
9189;BME280;34313;50.780;6.084;2022-10-31T14:17:23;99340.72;;;19.95;63.29
9189;BME280;34313;50.780;6.084;2022-10-31T14:22:37;99334.34;;;19.96;63.82
9189;BME280;34313;50.780;6.084;2022-10-31T14:25:24;99342.47;;;19.87;64.24
9189;BME280;34313;50.780;6.084;2022-10-31T14:27:50;99334.81;;;19.74;64.13
9189;BME280;34313;50.780;6.084;2022-10-31T14:30:19;99337.69;;;19.62;64.70
9189;BME280;34313;50.780;6.084;2022-10-31T14:32:56;99327.19;;;19.33;65.80
9189;BME280;34313;50.780;6.084;2022-10-31T14:35:42;99323.88;;;19.21;65.25
9189;BME280;34313;50.780;6.084;2022-10-31T14:38:25;99311.38;;;19.22;66.79
9189;BME280;34313;50.780;6.084;2022-10-31T14:42:25;99315.22;;;19.10;67.47
9189;BME280;34313;50.780;6.084;2022-10-31T14:44:46;99308.94;;;19.01;68.28
9189;BME280;34313;50.780;6.084;2022-10-31T14:47:26;99310.00;;;18.90;68.62
9189;BME280;34313;50.780;6.084;2022-10-31T14:50:13;99294.25;;;18.77;69.03
9189;BME280;34313;50.780;6.084;2022-10-31T14:52:49;99294.94;;;18.79;68.75
9189;BME280;34313;50.780;6.084;2022-10-31T14:55:17;99293.28;;;18.78;68.85
9189;BME280;34313;50.780;6.084;2022-10-31T14:57:52;99287.28;;;18.66;68.96
9189;BME280;34313;50.780;6.084;2022-10-31T15:00:22;99280.69;;;18.61;68.48
9189;BME280;34313;50.780;6.084;2022-10-31T15:03:05;99270.16;;;18.59;68.49
9189;BME280;34313;50.780;6.084;2022-10-31T15:05:34;99279.31;;;18.57;67.75
9189;BME280;34313;50.780;6.084;2022-10-31T15:08:14;99270.44;;;18.66;67.14
9189;BME280;34313;50.780;6.084;2022-10-31T15:10:50;99273.09;;;18.66;67.19
9189;BME280;34313;50.780;6.084;2022-10-31T15:13:20;99264.69;;;18.61;67.03